createdAt,value
2022-09-16T00:02:03.464Z,97.70
2022-09-16T00:04:48.375Z,97.50
2022-09-16T00:07:33.926Z,97.80
2022-09-16T00:10:19.343Z,97.90
2022-09-16T00:13:04.909Z,97.80
2022-09-16T00:15:51.221Z,97.80
2022-09-16T00:18:36.629Z,97.70
2022-09-16T00:21:22.525Z,97.80
2022-09-16T00:24:10.696Z,97.90
2022-09-16T00:26:55.839Z,98.10
2022-09-16T00:29:41.427Z,98.00
2022-09-16T00:32:26.786Z,97.90
2022-09-16T00:35:12.143Z,97.80
2022-09-16T00:37:57.555Z,97.80
2022-09-16T00:40:48.433Z,97.90
2022-09-16T00:43:48.011Z,97.80
2022-09-16T00:46:46.472Z,97.90
2022-09-16T00:49:32.152Z,97.80
2022-09-16T00:52:18.996Z,97.90
2022-09-16T00:55:08.215Z,97.90
2022-09-16T00:57:55.009Z,98.00
2022-09-16T01:00:41.265Z,98.00
2022-09-16T01:03:29.023Z,97.80
2022-09-16T01:06:16.725Z,97.90
2022-09-16T01:09:02.402Z,98.00
2022-09-16T01:11:47.755Z,97.90
2022-09-16T01:14:51.947Z,97.90
2022-09-16T01:17:59.311Z,97.90
2022-09-16T01:20:59.696Z,97.80
2022-09-16T01:24:03.949Z,98.00
2022-09-16T01:27:24.427Z,98.00
2022-09-16T01:30:28.185Z,97.90
2022-09-16T01:33:45.326Z,97.80
2022-09-16T01:36:35.720Z,98.00
2022-09-16T01:39:49.963Z,98.10
2022-09-16T01:42:56.188Z,98.30
2022-09-16T01:46:24.487Z,98.10
2022-09-16T01:49:44.577Z,98.20
2022-09-16T01:52:36.809Z,98.10
2022-09-16T01:55:46.699Z,98.30
2022-09-16T01:58:37.740Z,98.40
2022-09-16T02:01:30.000Z,98.10
2022-09-16T02:04:37.516Z,98.20
2022-09-16T02:07:29.417Z,98.20
2022-09-16T02:10:28.916Z,98.40
2022-09-16T02:13:28.032Z,98.50
2022-09-16T02:16:35.669Z,98.50
2022-09-16T02:19:28.377Z,98.30
2022-09-16T02:22:20.015Z,98.20
2022-09-16T02:25:08.385Z,98.40
2022-09-16T02:27:54.248Z,98.30
2022-09-16T02:30:44.131Z,98.50
2022-09-16T02:33:44.884Z,98.50
2022-09-16T02:36:32.289Z,98.30
2022-09-16T02:39:23.124Z,98.30
2022-09-16T02:42:08.299Z,98.30
2022-09-16T02:44:53.889Z,98.30
2022-09-16T02:47:54.868Z,98.40
2022-09-16T02:50:52.694Z,98.40
2022-09-16T02:53:45.471Z,98.60
2022-09-16T02:56:34.532Z,98.60
2022-09-16T02:59:20.205Z,98.70
2022-09-16T03:02:05.433Z,98.60
2022-09-16T03:04:50.840Z,98.60
2022-09-16T03:07:37.297Z,98.60
2022-09-16T03:10:28.797Z,98.50
2022-09-16T03:13:26.089Z,98.70
2022-09-16T03:16:26.280Z,98.50
2022-09-16T03:19:36.039Z,98.60
2022-09-16T03:22:29.449Z,98.60
2022-09-16T03:25:44.573Z,98.60
2022-09-16T03:28:56.118Z,98.50
2022-09-16T03:31:59.564Z,98.50
2022-09-16T03:34:50.695Z,98.70
2022-09-16T03:37:38.831Z,98.80
2022-09-16T03:40:24.576Z,98.30
2022-09-16T03:43:16.002Z,98.50
2022-09-16T03:46:01.600Z,98.40
2022-09-16T03:48:46.723Z,98.50
2022-09-16T03:51:32.107Z,98.60
2022-09-16T03:54:17.513Z,98.40
2022-09-16T03:57:03.864Z,98.70
2022-09-16T03:59:49.249Z,98.60
2022-09-16T04:02:36.176Z,98.80
2022-09-16T04:05:21.493Z,98.60
2022-09-16T04:08:06.793Z,98.60
2022-09-16T04:10:55.963Z,98.50
2022-09-16T04:13:41.106Z,98.30
2022-09-16T04:16:27.224Z,98.30
2022-09-16T04:19:13.900Z,98.30
2022-09-16T04:21:59.222Z,98.50
2022-09-16T04:24:44.654Z,98.40
2022-09-16T04:27:29.911Z,98.30
2022-09-16T04:30:15.492Z,98.40
2022-09-16T04:33:00.817Z,98.50
2022-09-16T04:35:46.172Z,98.70
2022-09-16T04:38:31.638Z,98.60
2022-09-16T04:41:19.667Z,98.60
2022-09-16T04:44:05.675Z,98.40
2022-09-16T04:46:50.720Z,98.90
2022-09-16T04:49:36.018Z,99.90
2022-09-16T04:52:21.309Z,99.90
2022-09-16T04:55:07.014Z,99.50
2022-09-16T04:57:52.467Z,99.10
2022-09-16T05:00:37.781Z,98.80
2022-09-16T05:03:23.044Z,98.70
2022-09-16T05:06:10.895Z,98.60
2022-09-16T05:08:57.252Z,98.60
2022-09-16T05:11:42.585Z,98.30
2022-09-16T05:14:27.971Z,98.20
2022-09-16T05:17:23.114Z,98.10
2022-09-16T05:20:18.742Z,98.10
2022-09-16T05:23:03.740Z,98.10
2022-09-16T05:25:49.174Z,98.00
2022-09-16T05:28:35.551Z,97.90
2022-09-16T05:31:24.267Z,97.90
2022-09-16T05:34:15.384Z,98.00
2022-09-16T05:37:00.680Z,98.00
2022-09-16T05:39:46.157Z,98.10
2022-09-16T05:42:31.611Z,98.10
2022-09-16T05:45:22.888Z,98.10
2022-09-16T05:48:09.376Z,98.00
2022-09-16T05:50:57.005Z,97.80
2022-09-16T05:53:42.268Z,98.00
2022-09-16T05:56:30.027Z,97.80
2022-09-16T05:59:16.424Z,98.00
2022-09-16T06:02:01.650Z,98.00
2022-09-16T06:04:47.613Z,98.00
2022-09-16T06:07:33.098Z,98.00
2022-09-16T06:10:18.759Z,98.00
2022-09-16T06:13:04.091Z,98.40
2022-09-16T06:15:56.475Z,98.10
2022-09-16T06:18:41.479Z,98.40
2022-09-16T06:21:27.007Z,98.10
2022-09-16T06:24:13.732Z,98.00
2022-09-16T06:26:59.072Z,97.90
2022-09-16T06:29:44.478Z,97.80
2022-09-16T06:32:33.503Z,98.00
2022-09-16T06:35:18.840Z,98.10
2022-09-16T06:38:04.613Z,98.20
2022-09-16T06:40:50.435Z,98.20
2022-09-16T06:43:36.454Z,97.90
2022-09-16T06:46:24.238Z,97.80
2022-09-16T06:49:11.015Z,97.70
2022-09-16T06:51:56.733Z,97.70
2022-09-16T06:54:42.180Z,97.90
2022-09-16T06:57:27.555Z,98.00
2022-09-16T07:00:14.210Z,97.70
2022-09-16T07:03:01.904Z,97.50
2022-09-16T07:05:57.838Z,97.30
2022-09-16T07:08:43.061Z,97.40
2022-09-16T07:11:28.453Z,96.60
2022-09-16T07:14:13.900Z,97.20
2022-09-16T07:17:00.362Z,97.50
2022-09-16T07:19:45.777Z,97.30
2022-09-16T07:22:32.392Z,97.00
2022-09-16T07:25:17.751Z,97.20
2022-09-16T07:28:03.477Z,97.00
2022-09-16T07:30:48.628Z,97.20
2022-09-16T07:33:39.414Z,97.10
2022-09-16T07:36:27.523Z,96.60
2022-09-16T07:39:14.722Z,96.70
2022-09-16T07:42:05.835Z,96.60
2022-09-16T07:44:51.665Z,95.90
2022-09-16T07:47:37.119Z,95.50
2022-09-16T07:50:22.531Z,95.90
2022-09-16T07:53:07.999Z,95.30
2022-09-16T07:55:54.393Z,95.30
2022-09-16T07:58:40.656Z,94.90
2022-09-16T08:01:26.438Z,95.00
2022-09-16T08:04:12.163Z,95.20
2022-09-16T08:06:57.545Z,95.20
2022-09-16T08:09:45.125Z,95.20
2022-09-16T08:12:35.762Z,94.90
2022-09-16T08:15:21.109Z,94.80
2022-09-16T08:18:06.469Z,94.60
2022-09-16T08:20:51.755Z,94.40
2022-09-16T08:23:38.296Z,94.50
2022-09-16T08:26:24.152Z,94.40
2022-09-16T08:29:10.464Z,93.90
2022-09-16T08:31:56.227Z,93.90
2022-09-16T08:34:41.457Z,93.50
2022-09-16T08:37:26.929Z,93.90
2022-09-16T08:40:18.389Z,94.00
2022-09-16T08:43:20.791Z,93.50
2022-09-16T08:46:23.072Z,93.30
2022-09-16T08:49:18.830Z,93.50
2022-09-16T08:52:11.869Z,93.50
2022-09-16T08:55:10.837Z,93.00
2022-09-16T08:58:03.821Z,93.20
2022-09-16T09:01:03.609Z,93.00
2022-09-16T09:03:49.310Z,92.30
2022-09-16T09:06:59.305Z,92.00
2022-09-16T09:10:08.596Z,91.40
2022-09-16T09:13:14.760Z,91.50
2022-09-16T09:16:12.637Z,90.90
2022-09-16T09:19:05.792Z,91.40
2022-09-16T09:21:59.665Z,90.70
2022-09-16T09:25:22.018Z,90.50
2022-09-16T09:28:17.297Z,90.00
2022-09-16T09:31:32.936Z,90.10
2022-09-16T09:34:42.846Z,90.00
2022-09-16T09:37:36.916Z,90.30
2022-09-16T09:40:49.720Z,90.60
2022-09-16T09:43:37.698Z,90.90
2022-09-16T09:46:39.503Z,90.60
2022-09-16T09:49:33.836Z,90.70
2022-09-16T09:52:28.903Z,90.70
2022-09-16T09:55:24.699Z,90.40
2022-09-16T09:58:22.867Z,90.80
2022-09-16T10:01:08.845Z,90.60
2022-09-16T10:03:56.066Z,90.80
2022-09-16T10:06:42.671Z,90.70
2022-09-16T10:09:27.780Z,91.00
2022-09-16T10:12:13.100Z,91.10
2022-09-16T10:14:58.783Z,90.70
2022-09-16T10:17:52.636Z,90.80
2022-09-16T10:20:41.459Z,90.20
2022-09-16T10:23:29.900Z,90.60
2022-09-16T10:26:28.614Z,90.40
2022-09-16T10:29:19.501Z,90.20
2022-09-16T10:32:09.181Z,90.80
2022-09-16T10:34:54.604Z,90.80
2022-09-16T10:37:46.639Z,91.10
2022-09-16T10:40:33.705Z,91.10
2022-09-16T10:43:19.264Z,90.40
2022-09-16T10:46:05.978Z,90.50
2022-09-16T10:48:56.929Z,90.50
2022-09-16T10:51:42.347Z,90.90
2022-09-16T10:54:28.503Z,91.10
2022-09-16T10:57:29.505Z,90.80
2022-09-16T11:00:22.425Z,90.70
2022-09-16T11:03:23.855Z,90.50
2022-09-16T11:06:49.187Z,89.70
2022-09-16T11:10:09.172Z,87.20
2022-09-16T11:13:23.488Z,88.40
2022-09-16T11:16:27.110Z,87.50
2022-09-16T11:19:26.975Z,86.60
2022-09-16T11:22:51.079Z,85.60
2022-09-16T11:25:42.447Z,85.70
2022-09-16T11:28:56.077Z,84.60
2022-09-16T11:32:16.164Z,83.60
2022-09-16T11:35:31.846Z,81.50
2022-09-16T11:38:17.230Z,81.10
2022-09-16T11:41:20.480Z,81.90
2022-09-16T11:44:38.647Z,81.20
2022-09-16T11:47:45.854Z,80.00
2022-09-16T11:50:56.793Z,78.00
2022-09-16T11:54:10.896Z,78.10
2022-09-16T11:57:01.909Z,79.30
2022-09-16T12:00:10.244Z,81.20
2022-09-16T12:02:58.634Z,81.70
2022-09-16T12:05:54.514Z,80.00
2022-09-16T12:08:58.611Z,80.70
2022-09-16T12:11:52.484Z,79.50
2022-09-16T12:14:43.655Z,78.80
2022-09-16T12:17:37.153Z,77.30
2022-09-16T12:20:44.320Z,76.60
2022-09-16T12:23:34.156Z,78.10
2022-09-16T12:26:29.348Z,77.00
2022-09-16T12:29:33.455Z,79.80
2022-09-16T12:32:22.565Z,82.50
2022-09-16T12:35:42.361Z,85.50
2022-09-16T12:38:27.852Z,87.10
2022-09-16T12:41:32.215Z,90.00
2022-09-16T12:44:35.509Z,89.40
2022-09-16T12:47:43.667Z,89.80
2022-09-16T12:50:47.577Z,89.20
2022-09-16T12:53:40.914Z,89.20
2022-09-16T12:56:56.928Z,88.00
2022-09-16T13:00:19.477Z,89.00
2022-09-16T13:03:19.525Z,88.80
2022-09-16T13:06:18.310Z,90.10
2022-09-16T13:09:23.276Z,89.40
2022-09-16T13:15:34.046Z,86.60
2022-09-16T13:18:28.901Z,86.60
2022-09-16T13:21:27.049Z,86.50
2022-09-16T13:24:15.961Z,83.50
2022-09-16T13:27:01.029Z,83.50
2022-09-16T13:29:46.442Z,83.20
2022-09-16T13:32:58.412Z,80.80
2022-09-16T13:35:45.766Z,80.80
2022-09-16T13:38:39.584Z,80.50
2022-09-16T13:41:46.829Z,80.80
2022-09-16T13:44:40.904Z,81.10
2022-09-16T13:47:34.048Z,81.60
2022-09-16T13:50:22.866Z,80.80
2022-09-16T13:53:29.399Z,83.90
2022-09-16T13:56:44.953Z,86.70
2022-09-16T14:03:15.027Z,88.10
2022-09-16T14:06:04.173Z,88.50
2022-09-16T14:09:11.859Z,86.70
2022-09-16T14:12:22.703Z,87.20
2022-09-16T14:15:09.248Z,84.10
2022-09-16T14:17:59.557Z,83.10
2022-09-16T14:21:01.202Z,80.60
2022-09-16T14:23:46.982Z,79.20
2022-09-16T14:26:32.301Z,78.90
2022-09-16T14:29:17.527Z,77.20
2022-09-16T14:32:03.720Z,74.50
2022-09-16T14:34:52.617Z,75.40
2022-09-16T14:37:44.515Z,75.30
2022-09-16T14:40:30.338Z,75.00
2022-09-16T14:43:20.266Z,74.50
2022-09-16T14:46:12.702Z,73.90
2022-09-16T14:49:07.124Z,74.70
2022-09-16T14:52:06.944Z,75.80
2022-09-16T14:55:00.292Z,77.30
2022-09-16T14:57:48.626Z,79.20
2022-09-16T15:01:00.849Z,82.40
2022-09-16T15:04:05.696Z,85.40
2022-09-16T15:07:03.769Z,87.20
2022-09-16T15:10:11.383Z,87.40
2022-09-16T15:13:05.208Z,89.00
2022-09-16T15:16:01.943Z,88.90
2022-09-16T15:19:00.490Z,89.70
2022-09-16T15:21:46.004Z,90.20
2022-09-16T15:24:33.933Z,90.70
2022-09-16T15:27:28.201Z,87.80
2022-09-16T15:30:25.386Z,90.00
2022-09-16T15:33:34.626Z,86.00
2022-09-16T15:36:42.842Z,88.70
2022-09-16T15:39:29.657Z,85.40
2022-09-16T15:42:25.240Z,87.00
2022-09-16T15:45:17.975Z,87.60
2022-09-16T15:48:14.643Z,88.00
2022-09-16T15:51:30.705Z,87.30
2022-09-16T15:54:16.066Z,87.40
2022-09-16T15:57:31.286Z,87.80
2022-09-16T16:00:16.647Z,88.40
2022-09-16T16:03:05.393Z,88.40
2022-09-16T16:05:52.490Z,89.80
2022-09-16T16:08:44.369Z,89.90
2022-09-16T16:11:30.920Z,90.20
2022-09-16T16:14:16.115Z,90.80
2022-09-16T16:17:17.110Z,91.20
2022-09-16T16:20:02.779Z,92.20
2022-09-16T16:22:48.911Z,92.50
2022-09-16T16:25:34.581Z,92.20
2022-09-16T16:28:19.923Z,91.60
2022-09-16T16:31:17.243Z,91.40
2022-09-16T16:34:03.455Z,91.40
2022-09-16T16:36:48.617Z,91.20
2022-09-16T16:39:35.150Z,91.40
2022-09-16T16:42:21.135Z,91.30
2022-09-16T16:45:07.025Z,91.20
2022-09-16T16:47:53.164Z,91.10
2022-09-16T16:50:38.365Z,91.40
2022-09-16T16:53:24.824Z,91.20
2022-09-16T16:56:15.216Z,91.20
2022-09-16T16:59:01.359Z,91.20
2022-09-16T17:01:50.279Z,91.30
2022-09-16T17:04:35.385Z,91.20
2022-09-16T17:07:26.075Z,91.30
2022-09-16T17:10:11.951Z,91.70
2022-09-16T17:12:58.588Z,91.80
2022-09-16T17:15:43.972Z,91.90
2022-09-16T17:18:29.381Z,91.60
2022-09-16T17:21:18.460Z,91.70
2022-09-16T17:24:04.148Z,91.80
2022-09-16T17:26:49.847Z,91.80
2022-09-16T17:29:35.132Z,92.30
2022-09-16T17:32:20.509Z,92.50
2022-09-16T17:35:06.413Z,92.60
2022-09-16T17:37:51.656Z,92.80
2022-09-16T17:40:37.421Z,92.90
2022-09-16T17:43:28.818Z,92.50
2022-09-16T17:46:20.193Z,92.90
2022-09-16T17:49:24.648Z,93.00
2022-09-16T17:52:09.914Z,93.30
2022-09-16T17:54:55.384Z,94.80
2022-09-16T17:57:40.801Z,95.20
2022-09-16T18:00:26.333Z,95.90
2022-09-16T18:03:12.799Z,95.70
2022-09-16T18:06:17.105Z,95.40
2022-09-16T18:09:04.447Z,95.00
2022-09-16T18:11:50.013Z,95.50
2022-09-16T18:14:35.347Z,94.90
2022-09-16T18:17:20.838Z,94.90
2022-09-16T18:20:07.359Z,94.80
2022-09-16T18:22:52.571Z,94.90
2022-09-16T18:25:38.463Z,94.70
2022-09-16T18:28:24.047Z,95.00
2022-09-16T18:31:14.941Z,94.80
2022-09-16T18:34:00.730Z,95.10
2022-09-16T18:36:46.373Z,95.20
2022-09-16T18:39:32.393Z,95.70
2022-09-16T18:42:17.953Z,95.40
2022-09-16T18:45:03.468Z,95.30
2022-09-16T18:47:51.733Z,95.10
2022-09-16T18:50:37.756Z,94.60
2022-09-16T18:53:23.194Z,94.80
2022-09-16T18:56:13.937Z,95.00
2022-09-16T18:59:21.700Z,95.00
2022-09-16T19:02:11.029Z,94.90
2022-09-16T19:04:56.695Z,95.00
2022-09-16T19:07:42.037Z,94.70
2022-09-16T19:10:27.637Z,94.30
2022-09-16T19:13:12.962Z,94.10
2022-09-16T19:15:58.611Z,94.50
2022-09-16T19:18:43.924Z,94.70
2022-09-16T19:21:29.903Z,94.40
2022-09-16T19:24:18.277Z,94.60
2022-09-16T19:27:03.388Z,95.00
2022-09-16T19:29:49.391Z,94.80
2022-09-16T19:32:34.812Z,94.80
2022-09-16T19:35:20.109Z,94.70
2022-09-16T19:38:05.413Z,94.90
2022-09-16T19:40:51.040Z,94.70
2022-09-16T19:43:37.056Z,94.60
2022-09-16T19:46:23.841Z,94.50
2022-09-16T19:49:15.819Z,94.40
2022-09-16T19:52:01.212Z,94.50
2022-09-16T19:54:46.907Z,94.40
2022-09-16T19:57:32.076Z,94.40
2022-09-16T20:00:17.734Z,94.40
2022-09-16T20:03:03.068Z,94.50
2022-09-16T20:05:48.446Z,94.30
2022-09-16T20:08:36.746Z,94.40
2022-09-16T20:11:24.395Z,94.30
2022-09-16T20:14:19.128Z,94.20
2022-09-16T20:17:05.112Z,94.30
2022-09-16T20:19:50.648Z,94.10
2022-09-16T20:22:35.937Z,94.30
2022-09-16T20:25:23.554Z,94.20
2022-09-16T20:28:08.979Z,94.20
2022-09-16T20:30:54.431Z,94.00
2022-09-16T20:33:40.657Z,94.00
2022-09-16T20:36:30.362Z,94.10
2022-09-16T20:39:15.863Z,94.00
2022-09-16T20:42:01.393Z,93.90
2022-09-16T20:44:49.421Z,94.10
2022-09-16T20:47:34.851Z,93.90
2022-09-16T20:50:20.193Z,94.10
2022-09-16T20:53:06.102Z,94.30
2022-09-16T20:55:51.375Z,93.70
2022-09-16T20:58:37.200Z,93.90
2022-09-16T21:01:29.649Z,93.80
2022-09-16T21:04:17.963Z,93.90
2022-09-16T21:07:03.458Z,93.70
2022-09-16T21:09:48.612Z,94.20
2022-09-16T21:12:35.523Z,93.80
2022-09-16T21:15:20.992Z,93.80
2022-09-16T21:18:06.327Z,94.00
2022-09-16T21:21:07.810Z,94.00
2022-09-16T21:23:55.356Z,94.00
2022-09-16T21:26:41.831Z,94.00
2022-09-16T21:29:27.133Z,93.90
2022-09-16T21:32:12.545Z,94.10
2022-09-16T21:34:59.308Z,93.90
2022-09-16T21:37:44.520Z,93.90
2022-09-16T21:40:30.038Z,94.20
2022-09-16T21:43:15.497Z,94.20
2022-09-16T21:46:02.690Z,94.10
2022-09-16T21:48:49.991Z,93.80
2022-09-16T21:51:37.401Z,93.70
2022-09-16T21:54:23.557Z,93.70
2022-09-16T21:57:10.469Z,93.80
2022-09-16T21:59:55.968Z,93.80
2022-09-16T22:02:41.462Z,93.70
2022-09-16T22:05:27.252Z,93.80
2022-09-16T22:08:12.984Z,93.70
2022-09-16T22:11:03.473Z,93.40
2022-09-16T22:13:49.545Z,93.60
2022-09-16T22:16:37.364Z,93.70
2022-09-16T22:19:22.647Z,93.60
2022-09-16T22:22:07.958Z,93.60
2022-09-16T22:24:53.516Z,93.60
2022-09-16T22:27:38.865Z,93.40
2022-09-16T22:30:24.439Z,93.50
2022-09-16T22:33:09.840Z,93.50
2022-09-16T22:35:55.215Z,93.60
2022-09-16T22:38:44.700Z,93.80
2022-09-16T22:41:30.040Z,93.80
2022-09-16T22:44:15.086Z,94.00
2022-09-16T22:47:00.565Z,93.80
2022-09-16T22:49:45.878Z,93.50
2022-09-16T22:52:32.157Z,93.60
2022-09-16T22:55:17.189Z,93.60
2022-09-16T22:58:02.579Z,93.50
2022-09-16T23:00:47.817Z,93.60
2022-09-16T23:03:34.182Z,93.70
2022-09-16T23:06:19.901Z,93.70
2022-09-16T23:09:07.078Z,93.80
2022-09-16T23:11:52.329Z,93.80
2022-09-16T23:14:37.738Z,93.90
2022-09-16T23:17:23.088Z,93.90
2022-09-16T23:20:08.805Z,94.00
2022-09-16T23:22:53.842Z,94.10
2022-09-16T23:25:39.805Z,94.10
2022-09-16T23:28:25.058Z,94.10
2022-09-16T23:31:13.716Z,94.30
2022-09-16T23:33:59.915Z,94.40
2022-09-16T23:36:45.805Z,94.50
2022-09-16T23:39:31.277Z,94.30
2022-09-16T23:42:16.952Z,94.50
2022-09-16T23:45:01.976Z,94.50
2022-09-16T23:47:47.297Z,94.40
2022-09-16T23:50:32.688Z,94.40
2022-09-16T23:53:18.021Z,94.40
2022-09-16T23:56:07.447Z,94.40
2022-09-16T23:58:52.777Z,94.10
